Time;durP1;ratioP1;P1;durP2;ratioP2;P2;SDS_P1;SDS_P2;PMS_P1;PMS_P2;Temp;Humidity;BMP_temperature;BMP_pressure;BME280_temperature;BME280_humidity;BME280_pressure;Samples;Min_cycle;Max_cycle;Signal;HPM_P1;HPM_P2
2022/12/05 09:28:23;;;;;;;;;5.00;5.00;;;;;17.54;50.11;101643.75;5093956;27;45767;-71
2022/12/05 09:31:00;;;;;;;;;7.25;7.25;;;;;17.87;50.14;101653.06;5095076;27;45494;-69
2022/12/05 09:33:27;;;;;;;;;11.00;9.00;;;;;18.40;50.63;101648.50;5087254;27;45433;-68
2022/12/05 09:35:52;;;;;;;;;10.75;9.25;;;;;19.01;50.21;101660.19;5089814;27;45562;-69
2022/12/05 09:38:18;;;;;;;;;10.50;8.75;;;;;19.59;50.55;101664.81;5093037;27;45495;-67
2022/12/05 09:40:43;;;;;;;;;9.75;7.00;;;;;20.08;49.94;101660.09;5101712;27;45455;-70
2022/12/05 09:43:26;;;;;;;;;8.00;8.00;;;;;20.55;50.07;101661.72;5086718;27;45685;-71
2022/12/05 09:46:03;;;;;;;;;9.75;9.00;;;;;20.98;49.54;101664.56;5085511;27;45486;-70
2022/12/05 09:48:30;;;;;;;;;10.00;8.75;;;;;21.29;49.40;101672.78;5089407;27;46409;-70
2022/12/05 09:50:59;;;;;;;;;10.50;8.75;;;;;21.56;48.98;101677.66;5088358;27;45442;-71
2022/12/05 09:53:37;;;;;;;;;12.25;10.50;;;;;21.77;48.91;101662.41;5091810;27;45436;-71
2022/12/05 09:56:02;;;;;;;;;9.00;9.00;;;;;21.95;48.21;101668.06;5100287;27;45492;-70
2022/12/05 12:54:18;;;;;;;;;11.75;11.75;;;;;16.79;50.07;101663.91;5071774;27;45550;-74
2022/12/05 12:57:28;;;;;;;;;11.75;11.75;;;;;17.47;50.58;101685.38;5051454;27;45367;-73
2022/12/05 13:00:02;;;;;;;;;13.50;11.25;;;;;18.06;50.44;101683.16;5033351;27;45332;-73
2022/12/05 13:02:38;;;;;;;;;16.25;11.25;;;;;18.69;50.61;101677.78;5005792;27;45578;-75
2022/12/05 13:05:34;;;;;;;;;12.25;9.75;;;;;19.29;49.85;101683.19;5006129;27;46397;-73
2022/12/05 13:08:32;;;;;;;;;13.25;12.00;;;;;19.89;50.01;101682.22;5005984;27;45615;-72
2022/12/05 13:11:02;;;;;;;;;10.50;10.50;;;;;20.39;49.34;101672.91;5040858;28;45564;-72
2022/12/05 13:13:35;;;;;;;;;11.25;11.00;;;;;20.83;49.04;101682.84;5035916;28;45653;-72
2022/12/05 13:16:06;;;;;;;;;13.00;11.00;;;;;21.23;48.84;101676.84;5047764;28;46901;-74
2022/12/05 13:18:32;;;;;;;;;13.75;12.00;;;;;21.58;49.08;101678.38;5045381;28;45396;-74
2022/12/05 13:21:02;;;;;;;;;15.25;13.25;;;;;21.92;48.50;101676.44;5046353;28;45494;-73
2022/12/05 13:23:45;;;;;;;;;11.00;9.25;;;;;22.22;47.90;101670.16;5047691;28;45433;-75
2022/12/05 13:26:12;;;;;;;;;9.75;9.75;;;;;22.52;47.98;101662.09;5048237;28;47081;-73
2022/12/05 13:28:40;;;;;;;;;10.33;9.33;;;;;22.76;47.47;101672.59;5045135;28;45571;-75
2022/12/05 13:31:07;;;;;;;;;9.00;9.00;;;;;22.98;47.45;101669.75;5043909;28;45585;-71
2022/12/05 13:33:43;;;;;;;;;13.00;9.33;;;;;23.20;47.03;101671.31;5057055;28;45892;-71
2022/12/05 13:42:16;;;;;;;;;9.33;9.33;;;;;23.64;46.16;101678.09;5067558;28;46335;-72
2022/12/05 13:44:47;;;;;;;;;10.33;9.33;;;;;23.74;46.24;101678.94;5074740;27;45568;-72
2022/12/05 13:47:27;;;;;;;;;12.67;9.00;;;;;23.81;46.27;101685.47;5057507;27;45424;-72
2022/12/05 13:50:20;;;;;;;;;11.00;11.00;;;;;23.92;45.86;101676.28;5040861;27;45456;-72
2022/12/05 13:52:53;;;;;;;;;7.33;7.33;;;;;23.99;46.07;101673.84;5039070;27;45496;-73
2022/12/05 13:55:28;;;;;;;;;10.33;10.33;;;;;24.07;45.67;101668.53;5074407;27;45372;-73
2022/12/05 13:57:57;;;;;;;;;8.67;8.67;;;;;24.12;45.49;101660.00;5040693;27;46247;-73
2022/12/05 14:00:26;;;;;;;;;9.00;9.00;;;;;24.19;45.29;101662.94;5072774;27;45477;-73
2022/12/05 14:02:54;;;;;;;;;12.00;10.33;;;;;24.20;45.30;101661.94;5047389;27;45410;-73
2022/12/05 14:05:19;;;;;;;;;11.00;9.67;;;;;24.25;44.99;101662.34;5029710;27;45408;-74
2022/12/05 14:07:53;;;;;;;;;11.00;10.00;;;;;24.29;44.76;101660.19;5017983;27;48694;-73
2022/12/05 14:10:27;;;;;;;;;11.67;10.33;;;;;24.30;44.86;101665.47;5030130;27;45539;-73
2022/12/05 14:13:22;;;;;;;;;11.67;10.33;;;;;24.30;44.65;101672.72;5025483;27;45342;-73
2022/12/05 14:15:50;;;;;;;;;10.33;10.33;;;;;24.31;44.48;101667.16;5033223;27;45413;-74
2022/12/05 14:18:34;;;;;;;;;10.00;9.33;;;;;24.29;44.26;101662.88;5028052;27;46230;-72
2022/12/05 14:21:11;;;;;;;;;14.67;12.33;;;;;24.26;44.25;101664.03;5037178;27;45776;-72
2022/12/05 14:24:16;;;;;;;;;13.67;11.00;;;;;24.28;44.35;101664.75;5019644;27;45506;-72
2022/12/05 14:26:51;;;;;;;;;11.67;11.67;;;;;24.34;44.03;101668.72;5024337;27;45522;-72
2022/12/05 14:29:37;;;;;;;;;11.33;9.00;;;;;24.38;43.76;101661.97;5018198;27;47153;-72
2022/12/05 14:32:27;;;;;;;;;7.33;5.00;;;;;24.45;43.85;101665.78;5036913;27;45969;-73
2022/12/05 14:35:01;;;;;;;;;11.00;9.00;;;;;24.53;43.92;101670.47;5024842;27;45390;-72
2022/12/05 14:37:32;;;;;;;;;9.00;9.00;;;;;24.61;43.94;101669.69;5019138;27;45437;-72
2022/12/05 14:40:32;;;;;;;;;13.00;12.00;;;;;24.69;43.66;101675.19;5020901;27;46216;-72
2022/12/05 14:43:02;;;;;;;;;11.67;10.00;;;;;24.65;43.66;101656.66;5023466;27;45684;-72
2022/12/05 14:45:39;;;;;;;;;9.00;9.00;;;;;24.86;43.23;101680.84;5012571;27;45569;-73
2022/12/05 14:48:14;;;;;;;;;13.00;9.00;;;;;24.93;43.33;101684.63;5020531;27;45517;-74
2022/12/05 14:50:45;;;;;;;;;10.00;10.00;;;;;24.96;43.51;101678.88;5017608;27;46323;-76
2022/12/05 14:53:19;;;;;;;;;10.00;10.00;;;;;25.03;43.06;101679.13;5022453;27;45367;-76
2022/12/05 14:55:46;;;;;;;;;9.67;9.67;;;;;24.95;43.28;101677.19;5018306;27;45603;-75
2022/12/05 14:58:19;;;;;;;;;12.67;11.67;;;;;24.99;42.96;101688.59;5008943;27;45768;-70
2022/12/05 15:00:53;;;;;;;;;14.33;14.33;;;;;24.91;42.85;101691.22;5024027;27;46409;-74
2022/12/05 15:03:24;;;;;;;;;14.67;13.67;;;;;24.80;42.58;101690.41;5023617;27;45434;-73
2022/12/05 15:05:49;;;;;;;;;15.00;12.67;;;;;24.72;42.22;101693.03;5025723;27;45344;-73
2022/12/05 15:08:15;;;;;;;;;14.67;13.00;;;;;24.64;42.40;101696.50;5023423;27;45461;-73
2022/12/05 15:10:42;;;;;;;;;13.00;12.67;;;;;24.64;42.64;101696.50;5029818;27;45606;-74
2022/12/05 15:13:16;;;;;;;;;12.67;11.33;;;;;24.63;42.39;101693.94;5019584;27;45342;-74
2022/12/05 15:15:45;;;;;;;;;13.00;11.00;;;;;24.61;42.36;101691.41;5031440;27;45722;-74
2022/12/05 15:18:36;;;;;;;;;17.33;13.33;;;;;24.55;42.17;101689.28;5022554;27;45512;-75
2022/12/05 15:21:08;;;;;;;;;15.67;14.33;;;;;24.48;42.09;101691.75;5022466;27;45479;-74
2022/12/05 15:23:47;;;;;;;;;23.67;18.67;;;;;24.45;42.07;101705.66;5010931;27;47115;-74
2022/12/05 15:26:24;;;;;;;;;19.00;17.33;;;;;24.36;42.12;101701.13;5023634;27;46037;-73
2022/12/05 15:29:22;;;;;;;;;15.00;11.67;;;;;24.31;41.51;101710.56;5021412;27;45485;-75
2022/12/05 15:31:56;;;;;;;;;13.00;12.50;;;;;24.27;41.82;101708.31;5030982;27;46081;-75
2022/12/05 15:34:42;;;;;;;;;17.00;14.33;;;;;24.23;41.68;101699.59;5022269;27;45331;-74
2022/12/05 15:37:07;;;;;;;;;16.00;11.33;;;;;24.25;42.06;101711.16;5023221;27;45577;-75
2022/12/05 15:39:57;;;;;;;;;13.33;12.33;;;;;24.31;41.82;101707.84;5019789;27;45447;-73
2022/12/05 15:42:25;;;;;;;;;12.67;10.00;;;;;24.38;42.21;101707.25;5019694;27;46168;-73
2022/12/05 15:44:50;;;;;;;;;12.00;12.00;;;;;24.44;42.21;101706.66;5019451;27;46132;-73
2022/12/05 15:47:22;;;;;;;;;11.33;11.33;;;;;24.51;41.71;101702.31;5017388;27;45553;-74
2022/12/05 15:49:48;;;;;;;;;11.67;11.67;;;;;24.62;41.67;101709.41;5036547;27;46969;-74
2022/12/05 15:52:29;;;;;;;;;11.67;10.33;;;;;24.76;41.71;101713.44;5023537;27;46305;-73
2022/12/05 15:54:58;;;;;;;;;12.00;12.00;;;;;24.84;41.71;101719.00;5021330;27;45549;-76
2022/12/05 15:57:36;;;;;;;;;12.33;11.00;;;;;24.95;41.85;101717.06;5024365;27;45457;-81
2022/12/05 16:00:05;;;;;;;;;14.33;10.67;;;;;25.05;41.65;101717.00;5017834;27;45784;-78
2022/12/05 16:02:46;;;;;;;;;11.67;9.67;;;;;25.11;41.51;101710.94;5015774;27;47379;-74
2022/12/05 16:05:31;;;;;;;;;10.33;10.00;;;;;25.27;41.44;101731.97;5024150;27;45458;-74
2022/12/05 16:07:58;;;;;;;;;11.33;11.33;;;;;25.36;41.38;101739.16;5017333;27;45490;-75
2022/12/05 16:10:23;;;;;;;;;11.33;11.00;;;;;25.42;41.33;101725.97;5018094;27;45454;-76
2022/12/05 16:12:51;;;;;;;;;12.33;11.33;;;;;25.49;41.07;101724.31;5029365;27;46156;-74
2022/12/05 16:15:26;;;;;;;;;13.67;13.00;;;;;25.58;40.88;101719.84;5028972;27;45684;-74
2022/12/05 16:17:57;;;;;;;;;10.33;10.33;;;;;25.65;41.23;101724.47;5022990;27;45572;-73
2022/12/05 16:20:27;;;;;;;;;12.00;12.00;;;;;25.71;40.98;101735.72;5022746;27;45536;-79
2022/12/05 16:22:55;;;;;;;;;9.67;9.67;;;;;25.76;41.13;101730.66;5023226;27;46034;-76
2022/12/05 16:25:28;;;;;;;;;15.67;9.00;;;;;25.82;41.17;101737.31;5023318;27;45591;-77
2022/12/05 16:28:15;;;;;;;;;12.00;12.00;;;;;25.86;40.87;101731.41;5021625;27;45834;-74
2022/12/05 16:30:54;;;;;;;;;12.00;10.67;;;;;25.87;40.86;101732.25;5021821;27;45539;-73
2022/12/05 16:33:19;;;;;;;;;10.67;10.00;;;;;25.90;40.97;101738.22;5015502;27;46464;-76
2022/12/05 16:35:47;;;;;;;;;10.00;9.33;;;;;25.89;40.89;101736.53;5016046;27;45416;-77
2022/12/05 16:38:16;;;;;;;;;12.67;12.33;;;;;25.92;40.54;101740.78;5022452;27;45611;-77
2022/12/05 16:40:44;;;;;;;;;9.33;8.00;;;;;25.95;40.44;101736.91;5023100;27;46036;-75
2022/12/05 16:43:25;;;;;;;;;11.00;11.00;;;;;26.00;40.45;101739.97;5016941;27;47559;-76
2022/12/05 16:45:52;;;;;;;;;10.00;8.67;;;;;26.05;40.48;101737.63;5018982;27;45509;-75
2022/12/05 16:48:26;;;;;;;;;15.67;12.00;;;;;26.11;40.67;101744.28;5020393;27;46152;-73
2022/12/05 16:51:12;;;;;;;;;12.33;12.00;;;;;26.10;40.21;101743.44;5021901;27;45514;-74
2022/12/05 16:53:42;;;;;;;;;15.67;14.67;;;;;26.03;40.45;101747.78;5022903;27;45430;-74
2022/12/05 16:56:31;;;;;;;;;11.33;10.33;;;;;25.90;39.97;101749.09;5022137;27;45644;-74
2022/12/05 16:59:01;;;;;;;;;14.00;12.67;;;;;25.76;39.62;101747.81;5012436;27;45720;-74
2022/12/05 17:01:27;;;;;;;;;12.33;11.67;;;;;25.66;39.92;101749.78;5022495;27;45609;-74
2022/12/05 17:03:54;;;;;;;;;11.67;11.00;;;;;25.58;40.08;101753.28;5025787;27;45985;-73
2022/12/05 17:06:20;;;;;;;;;14.33;13.00;;;;;25.53;39.93;101753.75;5048750;27;45437;-71
2022/12/05 17:08:46;;;;;;;;;11.67;11.67;;;;;25.47;39.91;101753.53;5023896;27;45364;-73
2022/12/05 17:11:22;;;;;;;;;13.00;12.67;;;;;25.44;39.69;101760.13;5022110;27;45507;-73
2022/12/05 17:13:48;;;;;;;;;18.00;13.67;;;;;25.40;39.49;101758.72;5036361;27;45548;-74
2022/12/05 17:16:19;;;;;;;;;10.00;10.00;;;;;25.32;39.56;101751.34;5027989;27;45678;-73
2022/12/05 17:18:44;;;;;;;;;13.67;11.33;;;;;25.26;39.67;101750.09;5021142;27;45502;-71
2022/12/05 17:21:16;;;;;;;;;15.33;13.67;;;;;25.26;39.47;101758.25;5018924;27;45453;-81
2022/12/05 17:23:42;;;;;;;;;20.67;18.33;;;;;25.15;39.21;101747.63;5017171;27;46307;-71
2022/12/05 17:26:12;;;;;;;;;17.00;15.67;;;;;25.11;39.41;101757.97;5019304;27;45437;-77
2022/12/05 17:28:37;;;;;;;;;21.33;19.00;;;;;25.17;39.50;101770.06;5017926;27;45523;-75
2022/12/05 17:31:03;;;;;;;;;18.00;16.33;;;;;25.16;39.44;101768.34;5005828;27;45825;-76
2022/12/05 17:33:29;;;;;;;;;13.00;13.00;;;;;25.12;39.35;101759.66;5020463;27;47844;-75
2022/12/05 17:35:54;;;;;;;;;13.33;13.33;;;;;25.16;39.75;101767.50;5020635;28;45640;-74
2022/12/05 17:38:20;;;;;;;;;17.00;16.00;;;;;25.24;39.41;101782.03;5017504;27;45316;-74
2022/12/05 17:40:46;;;;;;;;;18.00;16.67;;;;;25.27;39.39;101776.25;5024394;27;45690;-76
2022/12/05 17:43:13;;;;;;;;;16.33;14.00;;;;;25.29;39.19;101773.41;5019452;27;46069;-75
2022/12/05 17:45:38;;;;;;;;;13.67;13.33;;;;;25.33;39.14;101782.09;5024519;27;45579;-76
2022/12/05 17:48:04;;;;;;;;;18.00;18.00;;;;;25.38;39.09;101785.22;5017003;27;45553;-75
2022/12/05 17:50:29;;;;;;;;;16.00;14.33;;;;;25.33;39.17;101771.22;5023040;27;45706;-75
2022/12/05 17:52:57;;;;;;;;;16.67;15.00;;;;;25.44;39.17;101794.59;5021933;27;46536;-76
2022/12/05 17:55:27;;;;;;;;;18.33;13.67;;;;;25.44;39.13;101787.31;5025604;27;47127;-76
2022/12/05 17:57:54;;;;;;;;;13.00;13.00;;;;;25.49;39.50;101793.13;5028662;27;46995;-77
2022/12/05 18:00:21;;;;;;;;;16.00;15.33;;;;;25.53;39.19;101793.66;5026123;27;45706;-74
2022/12/05 18:02:46;;;;;;;;;17.33;15.00;;;;;25.49;39.08;101787.69;5027591;27;46425;-76
2022/12/05 18:05:13;;;;;;;;;18.67;15.33;;;;;25.58;39.23;101793.22;5023495;27;45723;-75
2022/12/05 18:07:41;;;;;;;;;15.00;15.00;;;;;25.60;38.96;101800.22;5019203;27;45666;-76
2022/12/05 18:10:09;;;;;;;;;17.67;16.00;;;;;25.61;39.34;101806.47;5011675;27;45648;-75
2022/12/05 18:12:35;;;;;;;;;13.33;13.33;;;;;25.61;39.45;101804.63;5023295;28;46459;-75
2022/12/05 18:15:01;;;;;;;;;14.67;14.33;;;;;25.64;39.11;101807.06;5022475;28;45435;-75
2022/12/05 18:17:27;;;;;;;;;15.00;14.33;;;;;25.63;38.99;101813.47;5021746;28;45525;-75
2022/12/05 18:19:54;;;;;;;;;15.00;14.67;;;;;25.64;39.39;101812.47;5021069;28;45344;-75
2022/12/05 18:22:21;;;;;;;;;15.00;15.00;;;;;25.65;39.28;101814.19;5023955;28;45320;-75
2022/12/05 18:24:47;;;;;;;;;16.00;14.33;;;;;25.64;39.47;101812.47;5023037;28;45454;-75
2022/12/05 18:27:12;;;;;;;;;14.33;13.00;;;;;25.66;39.19;101817.75;5022094;28;45549;-73
2022/12/05 18:29:37;;;;;;;;;16.33;15.67;;;;;25.68;39.46;101820.31;5022882;28;49856;-73
2022/12/05 18:32:03;;;;;;;;;16.00;15.00;;;;;25.68;39.42;101823.91;5015030;27;45669;-74
2022/12/05 18:34:28;;;;;;;;;15.00;13.67;;;;;25.60;39.27;101808.38;5020353;27;45365;-74
2022/12/05 18:36:54;;;;;;;;;15.67;15.33;;;;;25.60;38.89;101812.94;5022150;27;45560;-73
2022/12/05 18:39:20;;;;;;;;;14.67;13.67;;;;;25.68;39.05;101826.59;5023098;27;45510;-74
2022/12/05 18:41:46;;;;;;;;;14.33;13.33;;;;;25.69;39.40;101827.44;5022687;27;45548;-74
2022/12/05 18:44:11;;;;;;;;;13.00;13.00;;;;;25.68;39.44;101817.59;5021942;27;45609;-74
2022/12/05 18:46:37;;;;;;;;;15.67;15.00;;;;;25.63;39.42;101815.34;5022187;27;45656;-76
2022/12/05 18:49:03;;;;;;;;;15.33;13.67;;;;;25.65;39.39;101819.63;5033912;27;45523;-75
2022/12/05 18:51:28;;;;;;;;;19.33;14.33;;;;;25.71;39.50;101823.56;5024665;27;45483;-73
2022/12/05 18:53:55;;;;;;;;;11.67;11.00;;;;;25.63;39.30;101808.03;5020553;27;48977;-75
2022/12/05 18:56:22;;;;;;;;;14.67;13.67;;;;;25.75;39.52;101826.84;5019988;27;46515;-75
2022/12/05 18:58:59;;;;;;;;;17.33;15.67;;;;;25.75;39.19;101822.22;5012859;27;45380;-74
2022/12/05 19:01:25;;;;;;;;;16.00;15.33;;;;;25.76;39.22;101828.53;5021319;27;46018;-75
2022/12/05 19:03:51;;;;;;;;;13.67;12.33;;;;;25.76;39.41;101828.53;5025760;27;45749;-74
2022/12/05 19:06:22;;;;;;;;;18.00;15.33;;;;;25.82;38.99;101837.94;5022488;27;45383;-72
2022/12/05 19:08:47;;;;;;;;;16.67;16.67;;;;;25.81;39.36;101830.78;5026666;27;45606;-72
2022/12/05 19:11:24;;;;;;;;;15.00;15.00;;;;;25.83;39.13;101828.75;5007664;27;45477;-72
2022/12/05 19:13:53;;;;;;;;;17.00;15.67;;;;;25.82;38.98;101829.78;5022056;27;47026;-72
2022/12/05 19:16:19;;;;;;;;;14.00;14.00;;;;;25.78;39.35;101821.94;5021467;27;45993;-72
2022/12/05 19:18:45;;;;;;;;;14.33;14.33;;;;;25.82;38.89;101837.94;5040641;27;45579;-72
2022/12/05 19:21:14;;;;;;;;;19.33;17.00;;;;;25.81;38.97;101837.06;5022313;27;46131;-72
2022/12/05 19:23:43;;;;;;;;;15.33;14.67;;;;;25.78;39.20;101831.94;5020046;27;45698;-72
2022/12/05 19:26:09;;;;;;;;;14.33;14.33;;;;;25.76;39.20;101831.25;5019973;27;45727;-72
2022/12/05 19:28:36;;;;;;;;;13.67;13.67;;;;;25.75;38.87;101826.84;5015271;27;45540;-72
2022/12/05 19:31:02;;;;;;;;;15.00;15.00;;;;;25.70;38.88;101829.19;5023487;27;45815;-72
2022/12/05 19:33:39;;;;;;;;;18.33;15.00;;;;;25.70;38.53;101835.44;5027935;27;45423;-72
2022/12/05 19:36:10;;;;;;;;;16.67;15.00;;;;;25.68;38.71;101836.63;5020359;27;45421;-72
2022/12/05 19:38:37;;;;;;;;;19.00;18.00;;;;;25.64;38.91;101833.38;5019692;27;47262;-73
2022/12/05 19:41:06;;;;;;;;;16.00;13.33;;;;;25.58;38.82;101828.56;5017256;27;47229;-72
2022/12/05 19:43:35;;;;;;;;;17.00;13.33;;;;;25.57;39.33;101835.00;5023193;27;45519;-73
2022/12/05 19:46:10;;;;;;;;;15.00;14.67;;;;;25.56;39.05;101836.00;5024133;27;45481;-72
2022/12/05 19:48:36;;;;;;;;;18.00;15.00;;;;;25.44;38.65;101817.19;5016764;27;45497;-73
2022/12/05 19:51:02;;;;;;;;;14.67;14.67;;;;;25.50;38.94;101841.03;5017845;27;47100;-73
2022/12/05 19:53:30;;;;;;;;;17.33;16.00;;;;;25.45;38.72;101828.91;5021952;27;45415;-72
2022/12/05 19:56:00;;;;;;;;;17.67;16.00;;;;;25.48;38.74;101829.47;5017737;27;45578;-73
2022/12/05 19:58:29;;;;;;;;;16.00;16.00;;;;;25.44;39.05;101829.91;5022700;27;45733;-73
2022/12/05 20:00:54;;;;;;;;;15.67;15.33;;;;;25.47;38.76;101829.63;5037024;27;46917;-74
2022/12/05 20:03:20;;;;;;;;;18.00;18.00;;;;;25.43;38.56;101823.66;5022711;27;45631;-75
2022/12/05 20:05:56;;;;;;;;;17.00;16.00;;;;;25.46;38.53;101822.47;5017122;27;45405;-74
2022/12/05 20:08:21;;;;;;;;;17.00;15.67;;;;;25.48;38.95;101832.19;5019757;27;45292;-74
2022/12/05 20:10:49;;;;;;;;;16.00;15.67;;;;;25.44;38.90;101819.91;5021620;27;46524;-74
2022/12/05 20:13:14;;;;;;;;;15.33;15.33;;;;;25.47;39.16;101822.28;5025594;27;46979;-74
2022/12/05 20:15:40;;;;;;;;;20.00;17.33;;;;;25.50;38.64;101824.72;5005763;27;45545;-73
2022/12/05 20:18:05;;;;;;;;;15.67;15.67;;;;;25.55;38.82;101826.13;5020275;27;45390;-74
2022/12/05 20:20:36;;;;;;;;;16.67;14.67;;;;;25.58;38.53;101826.69;5015345;27;46141;-74
2022/12/05 20:23:01;;;;;;;;;16.67;16.67;;;;;25.59;38.74;101824.81;5020140;27;45613;-73
2022/12/05 20:25:27;;;;;;;;;16.33;15.00;;;;;25.58;38.66;101829.41;5018516;27;45498;-74
2022/12/05 20:27:52;;;;;;;;;15.00;15.00;;;;;25.59;38.80;101828.38;5022363;27;45477;-74
2022/12/05 20:30:21;;;;;;;;;18.00;17.00;;;;;25.58;38.84;101832.13;5020045;27;45726;-73
2022/12/05 20:32:46;;;;;;;;;16.00;16.00;;;;;25.55;38.39;101826.13;5022080;27;45437;-74
2022/12/05 20:35:11;;;;;;;;;20.67;16.33;;;;;25.60;38.61;101831.97;5026125;27;45550;-75
2022/12/05 20:37:40;;;;;;;;;17.67;15.00;;;;;25.58;38.96;101840.28;5029216;27;45644;-72
2022/12/05 20:40:06;;;;;;;;;17.00;16.00;;;;;25.58;38.44;101837.56;5024335;27;45769;-72
2022/12/05 20:42:35;;;;;;;;;16.00;14.67;;;;;25.59;38.47;101841.13;5023251;27;45671;-73
2022/12/05 20:45:00;;;;;;;;;12.33;12.33;;;;;25.57;38.73;101841.28;5030359;27;46190;-74
2022/12/05 20:47:26;;;;;;;;;19.00;15.33;;;;;25.58;38.52;101840.28;5020815;27;45546;-72
2022/12/05 20:49:58;;;;;;;;;14.67;14.67;;;;;25.55;38.81;101835.16;5013670;27;47970;-73
2022/12/05 20:52:24;;;;;;;;;14.00;14.00;;;;;25.57;38.95;101835.84;5021666;27;47047;-72
2022/12/05 20:54:50;;;;;;;;;16.33;16.33;;;;;25.53;38.76;101831.69;5022999;27;45492;-72
2022/12/05 20:57:15;;;;;;;;;14.00;14.00;;;;;25.56;39.02;101833.28;5027835;27;45555;-72
2022/12/05 20:59:40;;;;;;;;;17.33;14.67;;;;;25.61;39.21;101833.66;5021746;27;45782;-72
2022/12/05 21:02:06;;;;;;;;;14.33;13.00;;;;;25.61;38.72;101842.69;5020249;27;45691;-72
2022/12/05 21:04:31;;;;;;;;;19.00;17.33;;;;;25.61;39.20;101834.53;5020824;27;45515;-72
2022/12/05 21:06:57;;;;;;;;;15.33;15.00;;;;;25.59;38.74;101828.38;5020995;27;45672;-73
2022/12/05 21:09:26;;;;;;;;;13.33;13.33;;;;;25.61;38.61;101834.53;5018965;27;45481;-73
2022/12/05 21:11:55;;;;;;;;;13.67;13.67;;;;;25.63;38.84;101840.66;5033584;27;45431;-74
2022/12/05 21:14:21;;;;;;;;;15.67;14.00;;;;;25.62;38.95;101835.38;5012819;27;45520;-77
2022/12/05 21:16:47;;;;;;;;;14.00;14.00;;;;;25.62;39.08;101828.09;5023523;27;45486;-75
2022/12/05 21:19:12;;;;;;;;;18.00;16.00;;;;;25.63;38.73;101835.22;5023851;27;46110;-73
2022/12/05 21:21:38;;;;;;;;;16.00;15.50;;;;;25.68;38.64;101834.75;5008918;27;45906;-73
2022/12/05 21:24:04;;;;;;;;;15.33;15.33;;;;;25.65;39.12;101835.06;5021521;27;45770;-74
2022/12/05 21:26:31;;;;;;;;;17.00;15.33;;;;;25.68;38.83;101831.19;5026779;27;45765;-74
2022/12/05 21:28:58;;;;;;;;;17.00;15.33;;;;;25.72;38.88;101830.72;5025063;27;45403;-74
2022/12/05 21:31:31;;;;;;;;;18.00;15.67;;;;;25.73;39.13;101827.00;5020435;27;46172;-75
2022/12/05 21:34:00;;;;;;;;;15.00;14.00;;;;;25.76;39.16;101825.81;5023359;27;45357;-74
2022/12/05 21:36:27;;;;;;;;;16.67;14.33;;;;;25.75;38.46;101819.50;5023732;27;45472;-74
2022/12/05 21:38:53;;;;;;;;;16.33;16.33;;;;;25.75;39.14;101815.97;5023489;27;45522;-74
2022/12/05 21:41:18;;;;;;;;;15.00;14.33;;;;;25.77;38.72;101816.66;5020452;27;45436;-74
2022/12/05 21:43:44;;;;;;;;;15.00;14.33;;;;;25.80;38.77;101827.22;5024984;27;45409;-74
